KGCC

Gillette-Campbell County Airport

Gillette, Wyoming, USA
KGCC 141728Z 1418/1518 22015KT P6SM SCT200 FM150300 21022G32KT P6SM BKN200 FM151700 28014G24KT P6SM SCT200
Issued Valid From Valid To
Dec-14 @ 17:28 UTC
(4 hours ago)
Dec-14 @ 18:00 UTC
(4 hours ago)
Dec-15 @ 18:00 UTC
(in 20 hours)
Dec-14 @ 18:00 to Dec-15 @ 03:00
KGCC 141728Z 1418/1518 22015KT P6SM SCT200
Wind Visibility Clouds
220° at 15 knots Greater than 6 miles
  • Scattered at 20,000' AGL
From Dec-15 @ 03:00 to Dec-15 @ 17:00
FM150300 21022G32KT P6SM BKN200
Wind Visibility Clouds
210° at 22 knots
 Gusting to 32 knots
Greater than 6 miles
  • Broken at 20,000' AGL
From Dec-15 @ 17:00 to Dec-15 @ 18:00
FM151700 28014G24KT P6SM SCT200
Wind Visibility Clouds
280° at 14 knots
 Gusting to 24 knots
Greater than 6 miles
  • Scattered at 20,000' AGL
KGCC 141728Z 1418/1518 22015KT P6SM SCT200 FM150300 21022G32KT P6SM BKN200 FM151700 28014G24KT P6SM SCT200
Issued Dec-14 @ 17:28 UTC
(4 hours ago)
Valid From Dec-14 @ 18:00 UTC
(4 hours ago)
Valid To Dec-15 @ 18:00 UTC
(in 20 hours)
Dec-14 @ 18:00 - Dec-15 @ 03:00
Wind Visibility
220° at 15 knots Greater than 6 miles
Clouds
  • Scattered at 20,000' AGL
From Dec-15 @ 03:00 - Dec-15 @ 17:00
Wind Visibility
210° at 22 knots
 Gusting to 32 knots
Greater than 6 miles
Clouds
  • Broken at 20,000' AGL
From Dec-15 @ 17:00 - Dec-15 @ 18:00
Wind Visibility
280° at 14 knots
 Gusting to 24 knots
Greater than 6 miles
Clouds
  • Scattered at 20,000' AGL